createdAt,value
2015-11-04T00:00:11.431Z,86.88
2015-11-04T00:00:23.759Z,86.31
2015-11-04T00:00:36.107Z,86.41
2015-11-04T00:00:48.451Z,86.69
2015-11-04T00:01:00.748Z,86.41
2015-11-04T00:01:13.045Z,86.22
2015-11-04T00:01:25.341Z,86.22
2015-11-04T00:01:37.625Z,86.5
2015-11-04T00:01:49.937Z,86.41
2015-11-04T00:02:02.250Z,86.41
2015-11-04T00:02:14.562Z,86.6
2015-11-04T00:02:26.906Z,86.41
2015-11-04T00:02:39.237Z,86.41
2015-11-04T00:02:51.565Z,86.88
2015-11-04T00:03:03.862Z,86.79
2015-11-04T00:03:16.159Z,86.98
2015-11-04T00:03:28.456Z,87.16
2015-11-04T00:03:40.756Z,87.54
2015-11-04T00:03:53.053Z,87.64
2015-11-04T00:04:05.349Z,87.73
2015-11-04T00:04:17.646Z,88.3
2015-11-04T00:04:29.959Z,88.4
2015-11-04T00:04:42.289Z,88.21
2015-11-04T00:04:54.617Z,88.49
2015-11-04T00:05:06.945Z,88.3
2015-11-04T00:05:19.258Z,88.3
2015-11-04T00:05:31.555Z,88.3
2015-11-04T00:05:43.854Z,88.3
2015-11-04T00:05:56.136Z,88.21
2015-11-04T00:06:08.433Z,88.3
2015-11-04T00:06:20.729Z,88.21
2015-11-04T00:06:33.026Z,88.21
2015-11-04T00:06:45.342Z,88.02
2015-11-04T00:06:57.654Z,88.11
2015-11-04T00:07:09.967Z,87.83
2015-11-04T00:07:22.123Z,87.92
2015-11-04T00:07:34.467Z,87.54
2015-11-04T00:07:46.798Z,87.83
2015-11-04T00:07:59.095Z,88.21
2015-11-04T00:08:11.376Z,87.92
2015-11-04T00:08:23.673Z,88.02
2015-11-04T00:08:35.970Z,88.21
2015-11-04T00:08:48.270Z,88.02
2015-11-04T00:09:00.567Z,87.64
2015-11-04T00:09:12.863Z,87.64
2015-11-04T00:09:25.176Z,87.64
2015-11-04T00:09:37.488Z,87.73
2015-11-04T00:09:49.819Z,87.54
2015-11-04T00:10:02.162Z,87.45
2015-11-04T00:10:14.459Z,88.11
2015-11-04T00:10:26.740Z,88.59
2015-11-04T00:10:39.084Z,88.3
2015-11-04T00:10:51.228Z,88.4
2015-11-04T00:11:03.525Z,88.68
2015-11-04T00:11:15.822Z,88.59
2015-11-04T00:11:28.103Z,88.49
2015-11-04T00:11:40.415Z,89.06
2015-11-04T00:11:52.714Z,89.25
2015-11-04T00:12:05.042Z,89.34
2015-11-04T00:12:17.386Z,89.25
2015-11-04T00:12:29.792Z,89.15
2015-11-04T00:12:42.120Z,89.15
2015-11-04T00:12:54.436Z,89.25
2015-11-04T00:13:06.733Z,89.34
2015-11-04T00:13:19.030Z,89.15
2015-11-04T00:13:31.327Z,89.25
2015-11-04T00:13:43.623Z,89.06
2015-11-04T00:13:55.923Z,88.87
2015-11-04T00:14:08.220Z,89.15
2015-11-04T00:14:20.533Z,88.78
2015-11-04T00:14:32.845Z,88.59
2015-11-04T00:14:45.189Z,89.06
2015-11-04T00:14:57.489Z,89.15
2015-11-04T00:15:09.786Z,88.68
2015-11-04T00:15:22.083Z,88.59
2015-11-04T00:15:34.379Z,88.59
2015-11-04T00:15:46.692Z,88.49
2015-11-04T00:15:58.991Z,88.78
2015-11-04T00:16:11.303Z,88.59
2015-11-04T00:16:23.631Z,88.49
2015-11-04T00:16:35.960Z,88.68
2015-11-04T00:16:48.303Z,88.21
2015-11-04T00:17:00.619Z,88.3
2015-11-04T00:17:12.916Z,88.3
2015-11-04T00:17:25.197Z,88.11
2015-11-04T00:17:37.494Z,88.02
2015-11-04T00:17:49.634Z,88.3
2015-11-04T00:18:01.933Z,88.4
2015-11-04T00:18:14.074Z,88.4
2015-11-04T00:18:26.386Z,88.3
2015-11-04T00:18:38.699Z,88.35
2015-11-04T00:18:51.011Z,88.59
2015-11-04T00:19:03.343Z,88.68
2015-11-04T00:19:15.655Z,88.63
2015-11-04T00:19:27.952Z,88.3
2015-11-04T00:19:39.514Z,88.4
2015-11-04T00:19:51.811Z,88.59
2015-11-04T00:20:04.189Z,88.78
2015-11-04T00:20:16.486Z,88.68
2015-11-04T00:20:28.783Z,88.63
2015-11-04T00:20:41.080Z,88.59
2015-11-04T00:20:53.392Z,88.87
2015-11-04T00:21:05.692Z,88.35
2015-11-04T00:21:18.036Z,88.3
2015-11-04T00:21:30.380Z,88.63
2015-11-04T00:21:42.724Z,88.54
2015-11-04T00:21:55.005Z,88.35
2015-11-04T00:22:07.305Z,88.02
2015-11-04T00:22:19.617Z,87.83
2015-11-04T00:22:31.914Z,87.45
2015-11-04T00:22:44.227Z,87.68
2015-11-04T00:22:56.523Z,87.45
2015-11-04T00:23:08.854Z,87.21
2015-11-04T00:23:21.166Z,87.02
2015-11-04T00:23:33.479Z,87.12
2015-11-04T00:23:45.807Z,86.83
2015-11-04T00:23:58.119Z,87.02
2015-11-04T00:24:10.466Z,86.26
2015-11-04T00:24:22.763Z,86.55
2015-11-04T00:24:35.060Z,86.26
2015-11-04T00:24:47.357Z,86.12
2015-11-04T00:24:59.653Z,85.78
2015-11-04T00:25:11.969Z,85.78
2015-11-04T00:25:24.266Z,85.31
2015-11-04T00:25:36.563Z,85.31
2015-11-04T00:25:48.875Z,84.74
2015-11-04T00:26:01.191Z,84.74
2015-11-04T00:26:13.534Z,85.03
2015-11-04T00:26:25.863Z,85.03
2015-11-04T00:26:38.159Z,85.31
2015-11-04T00:26:50.472Z,85.03
2015-11-04T00:27:02.772Z,84.08
2015-11-04T00:27:15.069Z,84.65
2015-11-04T00:27:27.381Z,84.65
2015-11-04T00:27:39.694Z,85.22
2015-11-04T00:27:52.022Z,84.74
2015-11-04T00:28:04.336Z,84.46
2015-11-04T00:28:16.633Z,84.36
2015-11-04T00:28:28.914Z,85.13
2015-11-04T00:28:41.211Z,84.74
2015-11-04T00:28:53.508Z,85.13
2015-11-04T00:29:05.808Z,84.84
2015-11-04T00:29:18.105Z,85.03
2015-11-04T00:29:30.402Z,85.03
2015-11-04T00:29:42.714Z,85.41
2015-11-04T00:29:55.027Z,84.84
2015-11-04T00:30:07.358Z,85.03
2015-11-04T00:30:19.686Z,84.17
2015-11-04T00:30:31.983Z,84.08
2015-11-04T00:30:44.280Z,84.17
2015-11-04T00:30:56.577Z,83.8
2015-11-04T00:31:08.860Z,83.8
2015-11-04T00:31:21.157Z,83.98
2015-11-04T00:31:33.454Z,83.61
2015-11-04T00:31:45.766Z,83.8
2015-11-04T00:31:58.063Z,84.17
2015-11-04T00:32:10.379Z,84.36
2015-11-04T00:32:22.707Z,84.55
2015-11-04T00:32:35.035Z,84.65
2015-11-04T00:32:47.332Z,84.46
2015-11-04T00:32:59.629Z,83.8
2015-11-04T00:33:11.913Z,83.61
2015-11-04T00:33:24.210Z,83.51
2015-11-04T00:33:36.507Z,83.51
2015-11-04T00:33:48.788Z,83.7
2015-11-04T00:34:01.100Z,84.17
2015-11-04T00:34:13.431Z,83.7
2015-11-04T00:34:25.728Z,83.7
2015-11-04T00:34:38.088Z,83.89
2015-11-04T00:34:50.400Z,84.08
2015-11-04T00:35:02.713Z,84.08
2015-11-04T00:35:14.996Z,83.98
2015-11-04T00:35:27.293Z,84.08
2015-11-04T00:35:39.449Z,83.98
2015-11-04T00:35:51.730Z,84.55
2015-11-04T00:36:04.043Z,83.7
2015-11-04T00:36:16.343Z,83.8
2015-11-04T00:36:28.640Z,83.7
2015-11-04T00:36:40.952Z,83.13
2015-11-04T00:36:53.280Z,83.23
2015-11-04T00:37:05.608Z,83.8
2015-11-04T00:37:17.799Z,83.61
2015-11-04T00:37:30.127Z,84.08
2015-11-04T00:37:42.424Z,84.17
2015-11-04T00:37:54.721Z,84.55
2015-11-04T00:38:07.033Z,83.89
2015-11-04T00:38:19.349Z,83.7
2015-11-04T00:38:31.646Z,83.89
2015-11-04T00:38:43.942Z,83.23
2015-11-04T00:38:56.271Z,83.61
2015-11-04T00:39:08.583Z,83.61
2015-11-04T00:39:20.930Z,83.13
2015-11-04T00:39:33.258Z,82.94
2015-11-04T00:39:45.586Z,83.04
2015-11-04T00:39:57.930Z,83.23
2015-11-04T00:40:10.227Z,83.23
2015-11-04T00:40:22.526Z,83.04
2015-11-04T00:40:34.822Z,82.75
2015-11-04T00:40:47.104Z,82.66
2015-11-04T00:40:59.385Z,82.56
2015-11-04T00:41:11.666Z,83.04
2015-11-04T00:41:23.965Z,83.61
2015-11-04T00:41:36.262Z,83.7
2015-11-04T00:41:48.418Z,83.61
2015-11-04T00:42:00.746Z,83.89
2015-11-04T00:42:13.059Z,84.36
2015-11-04T00:42:25.344Z,83.98
2015-11-04T00:42:37.641Z,84.36
2015-11-04T00:42:49.938Z,84.08
2015-11-04T00:43:02.235Z,84.08
2015-11-04T00:43:14.547Z,84.08
2015-11-04T00:43:26.862Z,83.89
2015-11-04T00:43:39.190Z,84.27
2015-11-04T00:43:51.518Z,84.17
2015-11-04T00:44:03.830Z,84.17
2015-11-04T00:44:16.127Z,83.51
2015-11-04T00:44:28.427Z,83.7
2015-11-04T00:44:40.724Z,83.7
2015-11-04T00:44:53.021Z,83.61
2015-11-04T00:45:05.333Z,83.7
2015-11-04T00:45:17.630Z,83.32
2015-11-04T00:45:29.977Z,83.7
2015-11-04T00:45:42.290Z,83.13
2015-11-04T00:45:54.586Z,83.13
2015-11-04T00:46:06.883Z,82.94
2015-11-04T00:46:19.180Z,83.23
2015-11-04T00:46:31.479Z,83.04
2015-11-04T00:46:43.792Z,83.04
2015-11-04T00:46:56.120Z,83.61
2015-11-04T00:47:08.432Z,83.7
2015-11-04T00:47:20.760Z,83.7
2015-11-04T00:47:33.091Z,83.51
2015-11-04T00:47:45.420Z,83.42
2015-11-04T00:47:57.716Z,83.42
2015-11-04T00:48:10.013Z,83.04
2015-11-04T00:48:22.310Z,83.13
2015-11-04T00:48:34.610Z,82.75
2015-11-04T00:48:46.907Z,82.56
2015-11-04T00:48:59.219Z,82.66
2015-11-04T00:49:11.532Z,83.42
2015-11-04T00:49:23.844Z,83.32
2015-11-04T00:49:36.159Z,83.13
2015-11-04T00:49:48.487Z,82.94
2015-11-04T00:50:00.815Z,83.04
2015-11-04T00:50:13.159Z,83.04
2015-11-04T00:50:25.456Z,83.23
2015-11-04T00:50:37.757Z,83.32
2015-11-04T00:50:50.069Z,83.04
2015-11-04T00:51:02.350Z,82.47
2015-11-04T00:51:14.663Z,82.75
2015-11-04T00:51:26.960Z,82.56
2015-11-04T00:51:39.274Z,82.66
2015-11-04T00:51:51.587Z,82.66
2015-11-04T00:52:03.977Z,82.09
2015-11-04T00:52:16.290Z,82.47
2015-11-04T00:52:28.602Z,82.56
2015-11-04T00:52:40.901Z,82.47
2015-11-04T00:52:53.198Z,82.66
2015-11-04T00:53:05.495Z,82.75
2015-11-04T00:53:17.792Z,82.47
2015-11-04T00:53:30.092Z,82.75
2015-11-04T00:53:42.404Z,82.18
2015-11-04T00:53:54.701Z,81.81
2015-11-04T00:54:07.014Z,81.62
2015-11-04T00:54:19.326Z,81.71
2015-11-04T00:54:31.657Z,81.62
2015-11-04T00:54:43.970Z,81.52
2015-11-04T00:54:56.267Z,81.24
2015-11-04T00:55:08.564Z,81.71
2015-11-04T00:55:20.860Z,81.71
2015-11-04T00:55:33.160Z,81.9
2015-11-04T00:55:45.473Z,81.99
2015-11-04T00:55:57.770Z,82.09
2015-11-04T00:56:10.082Z,81.99
2015-11-04T00:56:22.379Z,82.18
2015-11-04T00:56:34.709Z,81.9
2015-11-04T00:56:47.053Z,82.09
2015-11-04T00:56:59.397Z,81.52
2015-11-04T00:57:11.725Z,81.71
2015-11-04T00:57:24.022Z,81.14
2015-11-04T00:57:36.322Z,81.43
2015-11-04T00:57:48.618Z,81.71
2015-11-04T00:58:00.915Z,81.52
2015-11-04T00:58:13.212Z,81.71
2015-11-04T00:58:25.509Z,81.9
2015-11-04T00:58:37.840Z,81.9
2015-11-04T00:58:50.153Z,81.71
2015-11-04T00:59:02.465Z,81.81
2015-11-04T00:59:14.793Z,81.71
2015-11-04T00:59:27.121Z,81.71
2015-11-04T00:59:39.405Z,81.81
2015-11-04T00:59:51.702Z,81.71
2015-11-04T01:00:03.998Z,81.71
2015-11-04T01:00:16.311Z,81.71
2015-11-04T01:00:28.608Z,81.81
2015-11-04T01:00:40.908Z,81.81
2015-11-04T01:00:53.205Z,82.28
2015-11-04T01:01:05.517Z,82.18
2015-11-04T01:01:17.830Z,82.18
2015-11-04T01:01:30.158Z,82.28
2015-11-04T01:01:42.490Z,82.09
2015-11-04T01:01:54.802Z,82.09
2015-11-04T01:02:07.084Z,81.99
2015-11-04T01:02:19.380Z,82.09
2015-11-04T01:02:31.677Z,82.09
2015-11-04T01:02:43.976Z,81.99
2015-11-04T01:02:56.257Z,82.28
2015-11-04T01:03:08.414Z,82.09
2015-11-04T01:03:20.726Z,82.09
2015-11-04T01:03:33.023Z,81.71
2015-11-04T01:03:45.339Z,81.52
2015-11-04T01:03:57.682Z,82.28
2015-11-04T01:04:09.995Z,81.9
2015-11-04T01:04:22.323Z,81.9
2015-11-04T01:04:34.620Z,81.9
2015-11-04T01:04:46.920Z,82.09
2015-11-04T01:04:59.217Z,82.28
2015-11-04T01:05:11.529Z,82.09
2015-11-04T01:05:23.826Z,82.28
2015-11-04T01:05:36.123Z,82.47
2015-11-04T01:05:48.437Z,82.37
2015-11-04T01:06:00.750Z,82.56
2015-11-04T01:06:13.078Z,82.47
2015-11-04T01:06:25.406Z,82.28
2015-11-04T01:06:37.734Z,82.47
2015-11-04T01:06:50.050Z,82.66
2015-11-04T01:07:02.347Z,82.85
2015-11-04T01:07:14.628Z,83.23
2015-11-04T01:07:26.768Z,83.42
2015-11-04T01:07:39.065Z,83.8
2015-11-04T01:07:51.365Z,83.89
2015-11-04T01:08:03.725Z,83.51
2015-11-04T01:08:16.037Z,83.32
2015-11-04T01:08:28.350Z,82.75
2015-11-04T01:08:40.678Z,82.47
2015-11-04T01:08:52.993Z,82.66
2015-11-04T01:09:05.321Z,82.75
2015-11-04T01:09:17.665Z,82.18
2015-11-04T01:09:29.978Z,81.99
2015-11-04T01:09:42.274Z,81.99
2015-11-04T01:09:54.573Z,82.18
2015-11-04T01:10:06.886Z,81.99
2015-11-04T01:10:19.183Z,82.28
2015-11-04T01:10:31.480Z,82.18
2015-11-04T01:10:43.792Z,82.18
2015-11-04T01:10:56.108Z,81.81
2015-11-04T01:11:08.420Z,82.18
2015-11-04T01:11:20.748Z,81.43
2015-11-04T01:11:33.076Z,81.62
2015-11-04T01:11:45.389Z,81.9
2015-11-04T01:11:57.689Z,81.9
2015-11-04T01:12:09.986Z,81.81
2015-11-04T01:12:22.282Z,81.33
2015-11-04T01:12:34.579Z,81.05
2015-11-04T01:12:46.892Z,81.05
2015-11-04T01:12:59.191Z,81.05
2015-11-04T01:13:11.503Z,80.86
2015-11-04T01:13:23.816Z,80.38
2015-11-04T01:13:36.128Z,80.57
2015-11-04T01:13:48.456Z,80.48
2015-11-04T01:14:00.772Z,80.38
2015-11-04T01:14:13.069Z,80.76
2015-11-04T01:14:25.366Z,81.24
2015-11-04T01:14:37.662Z,81.24
2015-11-04T01:14:49.975Z,81.33
2015-11-04T01:15:02.275Z,81.33
2015-11-04T01:15:14.587Z,81.81
2015-11-04T01:15:26.884Z,82.09
2015-11-04T01:15:39.181Z,81.71
2015-11-04T01:15:51.494Z,81.81
2015-11-04T01:16:03.808Z,82.37
2015-11-04T01:16:16.121Z,82.47
2015-11-04T01:16:28.464Z,82.09
2015-11-04T01:16:40.746Z,81.99
2015-11-04T01:16:53.058Z,81.9
2015-11-04T01:17:05.359Z,82.28
2015-11-04T01:17:17.671Z,81.9
2015-11-04T01:17:29.968Z,81.9
2015-11-04T01:17:42.312Z,82.09
2015-11-04T01:17:54.640Z,82.09
2015-11-04T01:18:06.956Z,81.62
2015-11-04T01:18:19.253Z,81.81
2015-11-04T01:18:31.565Z,81.52
2015-11-04T01:18:43.846Z,81.24
2015-11-04T01:18:56.159Z,81.14
2015-11-04T01:19:08.458Z,81.05
2015-11-04T01:19:20.755Z,80.76
2015-11-04T01:19:33.067Z,80.57
2015-11-04T01:19:45.364Z,80.67
2015-11-04T01:19:57.676Z,80.1
2015-11-04T01:20:10.008Z,80.1
2015-11-04T01:20:22.351Z,80.29
2015-11-04T01:20:34.648Z,80.19
2015-11-04T01:20:46.945Z,79.91
2015-11-04T01:20:59.242Z,80.29
2015-11-04T01:21:11.541Z,80.38
2015-11-04T01:21:23.838Z,80.1
2015-11-04T01:21:36.135Z,80.67
2015-11-04T01:21:48.431Z,80.48
2015-11-04T01:22:00.744Z,80.57
2015-11-04T01:22:13.045Z,80.1
2015-11-04T01:22:25.389Z,80.48
2015-11-04T01:22:37.717Z,80.29
2015-11-04T01:23:15.469Z,81.52
2015-11-04T01:23:27.766Z,82.18
2015-11-04T01:23:40.062Z,82.47
2015-11-04T01:23:52.359Z,82.47
2015-11-04T01:24:04.656Z,82.56
2015-11-04T01:24:16.972Z,82.56
2015-11-04T01:24:29.284Z,82.37
2015-11-04T01:24:41.612Z,83.04
2015-11-04T01:24:53.940Z,83.51
2015-11-04T01:25:06.253Z,83.32
2015-11-04T01:25:18.584Z,83.23
2015-11-04T01:25:30.881Z,83.13
2015-11-04T01:25:43.178Z,83.51
2015-11-04T01:25:55.475Z,83.42
2015-11-04T01:26:07.772Z,83.61
2015-11-04T01:26:19.914Z,83.61
2015-11-04T01:26:32.195Z,83.42
2015-11-04T01:26:44.508Z,83.42
2015-11-04T01:26:56.836Z,83.13
2015-11-04T01:27:09.149Z,83.42
2015-11-04T01:27:21.481Z,82.47
2015-11-04T01:27:33.809Z,82.75
2015-11-04T01:27:46.137Z,82.28
2015-11-04T01:27:58.418Z,82.56
2015-11-04T01:28:09.981Z,82.28
2015-11-04T01:28:22.295Z,82.18
2015-11-04T01:28:34.576Z,82.75
2015-11-04T01:28:46.905Z,82.37
2015-11-04T01:28:59.186Z,82.75
2015-11-04T01:29:11.483Z,82.56
2015-11-04T01:29:23.814Z,82.56
2015-11-04T01:29:36.126Z,82.09
2015-11-04T01:29:48.454Z,82.09
2015-11-04T01:30:00.798Z,81.71
2015-11-04T01:30:13.126Z,82.09
2015-11-04T01:30:25.456Z,82.18
2015-11-04T01:30:37.738Z,82.28
2015-11-04T01:30:50.035Z,82.18
2015-11-04T01:31:02.331Z,82.47
2015-11-04T01:31:14.644Z,82.47
2015-11-04T01:31:26.959Z,82.47
2015-11-04T01:31:39.241Z,82.28
2015-11-04T01:31:51.538Z,82.28
2015-11-04T01:32:03.866Z,82.47
2015-11-04T01:32:16.178Z,82.28
2015-11-04T01:32:28.509Z,82.56
2015-11-04T01:32:40.837Z,82.37
2015-11-04T01:32:53.025Z,81.99
2015-11-04T01:33:05.353Z,81.9
2015-11-04T01:33:17.634Z,81.99
2015-11-04T01:33:29.934Z,81.81
2015-11-04T01:33:42.247Z,81.62
2015-11-04T01:33:54.528Z,81.43
2015-11-04T01:34:06.856Z,81.62
2015-11-04T01:34:19.169Z,81.52
2015-11-04T01:34:31.500Z,81.9
2015-11-04T01:34:43.828Z,81.99
2015-11-04T01:34:56.156Z,82.28
2015-11-04T01:35:08.468Z,82.85
2015-11-04T01:35:20.765Z,82.37
2015-11-04T01:35:33.064Z,82.85
2015-11-04T01:35:45.361Z,83.42
2015-11-04T01:35:57.658Z,83.7
2015-11-04T01:36:09.955Z,83.89
2015-11-04T01:36:22.236Z,83.42
2015-11-04T01:36:34.552Z,83.8
2015-11-04T01:36:46.708Z,83.74
2015-11-04T01:36:59.036Z,83.7
2015-11-04T01:37:11.380Z,83.51
2015-11-04T01:37:23.708Z,83.7
2015-11-04T01:37:36.038Z,83.51
2015-11-04T01:37:48.350Z,83.42
2015-11-04T01:38:00.647Z,82.94
2015-11-04T01:38:12.929Z,82.56
2015-11-04T01:38:25.225Z,82.56
2015-11-04T01:38:37.541Z,82.94
2015-11-04T01:38:49.838Z,82.56
2015-11-04T01:39:02.135Z,82.56
2015-11-04T01:39:14.447Z,82.47
2015-11-04T01:39:26.744Z,82.09
2015-11-04T01:39:39.075Z,81.18
2015-11-04T01:39:51.388Z,80.38
2015-11-04T01:40:03.685Z,80.29
2015-11-04T01:40:15.981Z,79.72
2015-11-04T01:40:28.278Z,79.15
2015-11-04T01:40:40.593Z,79.06
2015-11-04T01:40:52.905Z,78.11
2015-11-04T01:41:05.187Z,77.64
2015-11-04T01:41:17.483Z,78.2
2015-11-04T01:41:29.799Z,77.73
2015-11-04T01:41:42.111Z,77.73
2015-11-04T01:41:54.440Z,77.54
2015-11-04T01:42:06.768Z,77.83
2015-11-04T01:42:19.111Z,77.54
2015-11-04T01:42:31.443Z,77.64
2015-11-04T01:42:43.739Z,77.64
2015-11-04T01:42:56.036Z,77.64
2015-11-04T01:43:08.333Z,78.02
2015-11-04T01:43:20.614Z,77.83
2015-11-04T01:43:32.758Z,77.73
2015-11-04T01:43:45.055Z,77.83
2015-11-04T01:43:57.367Z,77.54
2015-11-04T01:44:09.680Z,77.54
2015-11-04T01:44:21.977Z,77.64
2015-11-04T01:44:34.182Z,77.64
2015-11-04T01:44:46.494Z,78.11
2015-11-04T01:44:58.791Z,78.02
2015-11-04T01:45:11.088Z,77.64
2015-11-04T01:45:23.401Z,77.92
2015-11-04T01:45:35.701Z,78.49
2015-11-04T01:45:47.997Z,78.11
2015-11-04T01:46:00.294Z,78.2
2015-11-04T01:46:12.591Z,78.3
2015-11-04T01:46:24.904Z,78.3
2015-11-04T01:46:37.235Z,78.11
2015-11-04T01:46:49.563Z,78.3
2015-11-04T01:47:01.891Z,78.02
2015-11-04T01:47:14.204Z,78.02
2015-11-04T01:47:26.500Z,77.73
2015-11-04T01:47:38.800Z,77.73
2015-11-04T01:47:51.097Z,77.64
2015-11-04T01:48:03.394Z,77.54
2015-11-04T01:48:15.691Z,77.54
2015-11-04T01:48:27.988Z,77.83
2015-11-04T01:48:40.288Z,77.64
2015-11-04T01:48:52.585Z,77.45
2015-11-04T01:49:04.928Z,77.54
2015-11-04T01:49:17.241Z,77.35
2015-11-04T01:49:29.585Z,76.87
2015-11-04T01:49:41.883Z,77.25
2015-11-04T01:49:54.196Z,77.35
2015-11-04T01:50:06.493Z,77.25
2015-11-04T01:50:18.790Z,76.87
2015-11-04T01:50:31.087Z,77.16
2015-11-04T01:50:43.386Z,77.35
2015-11-04T01:50:55.668Z,78.02
2015-11-04T01:51:07.996Z,78.11
2015-11-04T01:51:20.293Z,78.2
2015-11-04T01:51:32.621Z,78.49
2015-11-04T01:51:44.921Z,78.58
2015-11-04T01:51:57.218Z,78.77
2015-11-04T01:52:09.499Z,78.58
2015-11-04T01:52:21.796Z,78.2
2015-11-04T01:52:34.093Z,78.3
2015-11-04T01:52:46.235Z,78.3
2015-11-04T01:52:58.532Z,77.73
2015-11-04T01:53:10.829Z,77.92
2015-11-04T01:53:22.970Z,77.54
2015-11-04T01:53:35.282Z,77.83
2015-11-04T01:53:47.582Z,77.83
2015-11-04T01:53:59.769Z,77.83
2015-11-04T01:54:12.082Z,77.64
2015-11-04T01:54:24.379Z,78.2
2015-11-04T01:54:36.676Z,78.11
2015-11-04T01:54:48.991Z,78.2
2015-11-04T01:55:01.272Z,78.3
2015-11-04T01:55:13.569Z,77.92
2015-11-04T01:55:25.882Z,78.39
2015-11-04T01:55:38.210Z,78.3
2015-11-04T01:55:50.540Z,77.92
2015-11-04T01:56:02.868Z,78.87
2015-11-04T01:56:15.259Z,78.96
2015-11-04T01:56:27.603Z,79.44
2015-11-04T01:56:39.899Z,79.72
2015-11-04T01:56:52.199Z,79.34
2015-11-04T01:57:04.496Z,79.15
2015-11-04T01:57:16.793Z,78.77
2015-11-04T01:57:29.106Z,78.2
2015-11-04T01:57:41.402Z,76.87
2015-11-04T01:57:53.718Z,76.68
2015-11-04T01:58:06.030Z,76.31
2015-11-04T01:58:18.343Z,76.31
2015-11-04T01:58:30.624Z,75.93
2015-11-04T01:58:42.937Z,75.36
2015-11-04T01:58:55.252Z,75.55
2015-11-04T01:59:07.549Z,75.36
2015-11-04T01:59:19.846Z,75.84
2015-11-04T01:59:32.143Z,76.03
2015-11-04T01:59:44.440Z,75.93
2015-11-04T01:59:56.740Z,76.5
2015-11-04T02:00:09.068Z,76.59
2015-11-04T02:00:21.380Z,77.25
2015-11-04T02:00:33.693Z,76.87
2015-11-04T02:00:46.021Z,77.16
2015-11-04T02:00:58.352Z,77.16
2015-11-04T02:01:10.680Z,76.78
2015-11-04T02:01:22.977Z,77.06
2015-11-04T02:01:35.274Z,78.02
2015-11-04T02:01:47.571Z,78.02
2015-11-04T02:01:59.870Z,78.3
2015-11-04T02:02:12.182Z,79.34
2015-11-04T02:02:24.479Z,79.25
2015-11-04T02:02:36.776Z,80
2015-11-04T02:02:49.088Z,79.82
2015-11-04T02:03:01.404Z,80.1
2015-11-04T02:03:13.732Z,80.1
2015-11-04T02:03:26.060Z,79.91
2015-11-04T02:03:38.388Z,78.87
2015-11-04T02:03:50.701Z,79.06
2015-11-04T02:04:03.001Z,78.77
2015-11-04T02:04:15.313Z,78.77
2015-11-04T02:04:27.610Z,79.34
2015-11-04T02:04:39.907Z,79.72
2015-11-04T02:04:52.204Z,80
2015-11-04T02:05:04.518Z,80.57
2015-11-04T02:05:16.846Z,80.48
2015-11-04T02:05:29.159Z,80.76
2015-11-04T02:05:41.503Z,81.14
2015-11-04T02:05:53.799Z,81.24
2015-11-04T02:06:06.115Z,80.95
2015-11-04T02:06:18.412Z,81.14
2015-11-04T02:06:30.709Z,81.14
2015-11-04T02:06:43.006Z,80.48
2015-11-04T02:06:55.302Z,80.67
2015-11-04T02:07:07.602Z,80.67
2015-11-04T02:07:19.915Z,80.67
2015-11-04T02:07:32.227Z,80.57
2015-11-04T02:07:44.555Z,80
2015-11-04T02:07:56.884Z,79.77
2015-11-04T02:08:09.215Z,78.92
2015-11-04T02:08:21.512Z,78.87
2015-11-04T02:08:33.808Z,78.77
2015-11-04T02:08:46.105Z,78.92
2015-11-04T02:08:58.402Z,78.64
2015-11-04T02:09:10.701Z,78.83
2015-11-04T02:09:23.014Z,78.73
2015-11-04T02:09:35.326Z,78.73
2015-11-04T02:09:47.639Z,78.16
2015-11-04T02:09:59.951Z,78.07
2015-11-04T02:10:12.283Z,78.07
2015-11-04T02:10:24.611Z,78.45
2015-11-04T02:10:36.939Z,78.73
2015-11-04T02:10:49.236Z,78.64
2015-11-04T02:11:01.377Z,78.83
2015-11-04T02:11:13.676Z,78.92
2015-11-04T02:11:25.973Z,78.83
2015-11-04T02:11:38.270Z,78.92
2015-11-04T02:11:50.566Z,79.49
2015-11-04T02:12:02.879Z,79.39
2015-11-04T02:12:15.194Z,79.77
2015-11-04T02:12:27.538Z,79.58
2015-11-04T02:12:39.835Z,80.06
2015-11-04T02:12:52.132Z,80.25
2015-11-04T02:13:04.429Z,80.82
2015-11-04T02:13:16.729Z,80.72
2015-11-04T02:13:29.041Z,81.01
2015-11-04T02:13:41.322Z,81.48
2015-11-04T02:13:53.635Z,81.29
2015-11-04T02:14:05.932Z,81.67
2015-11-04T02:14:18.262Z,81.86
2015-11-04T02:14:30.574Z,81.48
2015-11-04T02:14:42.903Z,81.86
2015-11-04T02:14:55.262Z,81.67
2015-11-04T02:15:07.574Z,81.95
2015-11-04T02:15:19.890Z,82.52
2015-11-04T02:15:32.187Z,82.43
2015-11-04T02:15:44.484Z,82.43
2015-11-04T02:15:56.781Z,82.81
2015-11-04T02:16:09.077Z,83.09
2015-11-04T02:16:21.377Z,83.56
2015-11-04T02:16:33.659Z,83.85
2015-11-04T02:16:45.815Z,83.66
2015-11-04T02:16:58.143Z,84.04
2015-11-04T02:17:10.471Z,84.7
2015-11-04T02:17:22.802Z,84.51
2015-11-04T02:17:35.115Z,84.32
2015-11-04T02:17:47.412Z,84.99
2015-11-04T02:17:59.724Z,85.08
2015-11-04T02:18:12.021Z,85.08
2015-11-04T02:18:24.304Z,85.08
2015-11-04T02:18:36.601Z,84.99
2015-11-04T02:18:48.898Z,84.61
2015-11-04T02:19:01.210Z,84.32
2015-11-04T02:19:13.523Z,84.51
2015-11-04T02:19:25.854Z,84.42
2015-11-04T02:19:38.182Z,83.94
2015-11-04T02:19:50.510Z,83.85
2015-11-04T02:20:02.807Z,83.66
2015-11-04T02:20:15.120Z,83.75
2015-11-04T02:20:27.420Z,83.56
2015-11-04T02:20:39.716Z,83.56
2015-11-04T02:20:51.998Z,83.56
2015-11-04T02:21:04.295Z,83.37
2015-11-04T02:21:16.591Z,82.81
2015-11-04T02:21:28.922Z,82.52
2015-11-04T02:21:41.234Z,81.86
2015-11-04T02:21:53.547Z,81.95
2015-11-04T02:22:05.875Z,81.38
2015-11-04T02:22:18.203Z,81.57
2015-11-04T02:22:30.518Z,81.2
2015-11-04T02:22:42.815Z,80.82
2015-11-04T02:22:55.112Z,80.91
2015-11-04T02:23:07.409Z,81.01
2015-11-04T02:23:19.706Z,81.01
2015-11-04T02:23:32.006Z,80.77
2015-11-04T02:23:44.303Z,80.96
2015-11-04T02:23:56.615Z,80.87
2015-11-04T02:24:08.928Z,81.34
2015-11-04T02:24:21.240Z,81.25
2015-11-04T02:24:33.556Z,81.25
2015-11-04T02:24:45.899Z,81.92
2015-11-04T02:24:58.212Z,82.2
2015-11-04T02:25:10.587Z,82.76
2015-11-04T02:25:22.884Z,82.76
2015-11-04T02:25:35.183Z,83.14
2015-11-04T02:25:47.479Z,83.71
2015-11-04T02:25:59.776Z,83.43
2015-11-04T02:26:12.089Z,83.9
2015-11-04T02:26:24.401Z,83.71
2015-11-04T02:26:36.748Z,84.09
2015-11-04T02:26:49.076Z,84.28
2015-11-04T02:27:01.373Z,84.47
2015-11-04T02:27:13.670Z,84.66
2015-11-04T02:27:25.970Z,84.94
2015-11-04T02:27:38.251Z,85.13
2015-11-04T02:27:50.532Z,85.42
2015-11-04T02:28:02.829Z,85.32
2015-11-04T02:28:15.110Z,85.89
2015-11-04T02:28:27.410Z,86.08
2015-11-04T02:28:39.707Z,86.27
2015-11-04T02:28:52.035Z,86.46
2015-11-04T02:29:04.363Z,86.36
2015-11-04T02:29:16.692Z,86.83
2015-11-04T02:29:29.006Z,86.74
2015-11-04T02:29:41.303Z,86.83
2015-11-04T02:29:53.459Z,86.46
2015-11-04T02:30:05.787Z,86.46
2015-11-04T02:30:18.069Z,86.74
2015-11-04T02:30:30.368Z,86.74
2015-11-04T02:30:42.665Z,86.36
2015-11-04T02:30:54.978Z,86.31
2015-11-04T02:31:07.275Z,85.51
2015-11-04T02:31:19.587Z,85.51
2015-11-04T02:31:31.918Z,85.55
2015-11-04T02:31:44.246Z,85.65
2015-11-04T02:31:56.543Z,84.85
2015-11-04T02:32:08.840Z,84.28
2015-11-04T02:32:21.121Z,83.81
2015-11-04T02:32:33.421Z,83.05
2015-11-04T02:32:45.734Z,82.39
2015-11-04T02:32:58.031Z,82.2
2015-11-04T02:33:10.328Z,82.01
2015-11-04T02:33:22.640Z,82.1
2015-11-04T02:33:34.955Z,81.72
2015-11-04T02:33:47.283Z,81.72
2015-11-04T02:33:59.580Z,81.82
2015-11-04T02:34:11.876Z,81.82
2015-11-04T02:34:24.189Z,82.1
2015-11-04T02:34:36.473Z,82.01
2015-11-04T02:34:48.770Z,82.01
2015-11-04T02:35:01.083Z,82.67
2015-11-04T02:35:13.364Z,82.67
2015-11-04T02:35:25.676Z,83.52
2015-11-04T02:35:37.992Z,83.9
2015-11-04T02:35:50.304Z,84.09
2015-11-04T02:36:02.632Z,84.47
2015-11-04T02:36:15.023Z,84.66
2015-11-04T02:36:27.336Z,84.75
2015-11-04T02:36:39.635Z,84.85
2015-11-04T02:36:51.948Z,84.75
2015-11-04T02:37:04.245Z,84.94
2015-11-04T02:37:16.557Z,85.32
2015-11-04T02:37:28.854Z,85.42
2015-11-04T02:37:41.184Z,85.61
2015-11-04T02:37:53.512Z,85.8
2015-11-04T02:38:05.841Z,86.08
2015-11-04T02:38:18.169Z,85.99
2015-11-04T02:38:30.325Z,86.18
2015-11-04T02:38:42.625Z,86.08
2015-11-04T02:38:54.906Z,86.27
2015-11-04T02:39:07.203Z,85.99
2015-11-04T02:39:19.500Z,85.89
2015-11-04T02:39:31.828Z,85.99